Time;durP1;ratioP1;P1;durP2;ratioP2;P2;SDS_P1;SDS_P2;PMS_P1;PMS_P2;Temp;Humidity;BMP_temperature;BMP_pressure;BME280_temperature;BME280_humidity;BME280_pressure;Samples;Min_cycle;Max_cycle;Signal;HPM_P1;HPM_P2
2021/11/11 00:01:21;;;;;;;40.13;24.00;;;;;;;1.21;87.71;100876.09;10461322;28;20052;-73
2021/11/11 00:06:23;;;;;;;41.50;22.83;;;;;;;1.14;87.24;100884.56;10461159;28;20052;-73
2021/11/11 00:11:24;;;;;;;35.55;23.75;;;;;;;1.01;88.35;100878.25;10459367;28;20045;-73
2021/11/11 00:16:26;;;;;;;41.67;23.92;;;;;;;0.92;88.46;100865.13;10461157;28;20499;-72
2021/11/11 00:21:28;;;;;;;28.45;22.52;;;;;;;1.04;88.81;100863.66;10464159;28;20443;-72
2021/11/11 00:26:30;;;;;;;31.42;20.55;;;;;;;1.00;87.46;100873.06;10459765;28;20395;-73
2021/11/11 00:31:32;;;;;;;28.05;21.67;;;;;;;0.81;88.80;100858.88;10459259;28;20044;-72
2021/11/11 00:36:34;;;;;;;25.08;21.15;;;;;;;0.76;89.43;100857.91;10458937;28;20069;-73
2021/11/11 00:41:35;;;;;;;24.38;20.83;;;;;;;0.78;89.53;100874.34;10459855;28;20049;-72
2021/11/11 00:46:37;;;;;;;26.30;21.55;;;;;;;0.99;88.83;100869.59;10461033;28;20037;-73
2021/11/11 00:51:39;;;;;;;23.15;20.92;;;;;;;1.04;88.38;100869.69;10458368;28;20045;-74
2021/11/11 00:56:41;;;;;;;23.70;21.10;;;;;;;0.94;88.88;100870.38;10459654;28;20453;-73
2021/11/11 01:01:43;;;;;;;24.88;22.17;;;;;;;0.84;89.26;100866.72;10458104;28;20041;-72
2021/11/11 01:06:45;;;;;;;28.33;23.27;;;;;;;0.85;89.70;100852.94;10457071;28;20522;-73
2021/11/11 01:11:46;;;;;;;25.75;22.27;;;;;;;0.81;89.34;100848.53;10458791;28;20494;-73
2021/11/11 01:16:49;;;;;;;30.40;24.15;;;;;;;0.75;89.84;100863.91;10459311;28;20098;-73
2021/11/11 01:21:52;;;;;;;40.35;27.13;;;;;;;0.59;90.44;100851.50;10457843;28;20422;-74
2021/11/11 01:26:53;;;;;;;36.38;26.00;;;;;;;0.62;90.73;100851.53;10456979;28;20122;-73
2021/11/11 01:31:56;;;;;;;41.60;24.38;;;;;;;0.71;90.31;100851.78;10458848;28;20064;-73
2021/11/11 01:36:59;;;;;;;25.38;21.90;;;;;;;0.69;90.70;100846.53;10457055;28;20418;-73
2021/11/11 01:42:03;;;;;;;30.98;23.80;;;;;;;0.68;90.70;100842.22;10443821;28;20443;-74
2021/11/11 01:47:05;;;;;;;35.70;24.73;;;;;;;0.72;90.87;100848.34;10461146;28;20502;-73
2021/11/11 01:52:09;;;;;;;36.65;26.70;;;;;;;0.58;91.50;100849.75;10463122;28;20494;-73
2021/11/11 01:57:13;;;;;;;40.47;26.50;;;;;;;0.61;91.85;100840.31;10468506;28;20502;-74
2021/11/11 02:02:24;;;;;;;36.17;25.52;;;;;;;0.72;91.89;100844.03;10467564;28;20107;-74
2021/11/11 02:07:26;;;;;;;45.70;28.30;;;;;;;0.71;92.37;100846.59;10457154;28;20049;-75
2021/11/11 02:12:32;;;;;;;37.08;26.48;;;;;;;0.80;92.62;100835.53;10466286;28;20044;-74
2021/11/11 02:17:38;;;;;;;39.47;29.10;;;;;;;0.85;92.91;100832.22;10466505;28;20094;-74
2021/11/11 02:22:47;;;;;;;48.70;30.90;;;;;;;0.90;93.33;100829.72;10467072;28;20089;-74
2021/11/11 02:27:53;;;;;;;52.53;31.75;;;;;;;0.94;93.85;100823.78;10450656;28;20064;-74
2021/11/11 02:32:55;;;;;;;71.95;39.25;;;;;;;1.08;95.20;100816.25;10450736;28;20089;-74
2021/11/11 02:38:00;;;;;;;68.95;38.78;;;;;;;1.16;95.92;100817.28;10465480;28;20053;-74
2021/11/11 02:43:09;;;;;;;80.65;44.72;;;;;;;1.37;97.36;100814.19;10464425;28;20528;-75
2021/11/11 02:48:13;;;;;;;78.22;44.38;;;;;;;1.66;97.15;100813.00;10466651;28;20077;-74
2021/11/11 02:53:22;;;;;;;80.68;44.78;;;;;;;1.63;96.55;100822.44;10467262;28;20111;-74
2021/11/11 02:58:25;;;;;;;83.82;45.50;;;;;;;1.99;96.54;100827.34;10465337;28;20045;-75
2021/11/11 03:03:29;;;;;;;78.35;44.78;;;;;;;2.07;96.42;100819.69;10465742;28;20045;-75
2021/11/11 03:08:32;;;;;;;80.68;43.33;;;;;;;2.06;94.53;100817.94;10465993;28;20133;-75
2021/11/11 03:13:34;;;;;;;79.35;44.25;;;;;;;2.14;95.49;100811.16;10466371;28;20067;-74
2021/11/11 03:18:40;;;;;;;70.32;40.20;;;;;;;2.10;92.97;100818.03;10464651;28;20049;-74
2021/11/11 03:23:44;;;;;;;62.60;37.60;;;;;;;2.16;93.65;100820.69;10465372;28;20048;-74
2021/11/11 03:28:48;;;;;;;57.65;35.80;;;;;;;1.78;93.03;100817.53;10463598;28;20391;-74
2021/11/11 03:33:58;;;;;;;59.88;33.53;;;;;;;1.76;93.61;100803.66;10463490;28;20049;-74
2021/11/11 03:39:04;;;;;;;45.05;32.08;;;;;;;1.44;92.89;100805.69;10462861;28;20044;-74
2021/11/11 03:44:07;;;;;;;59.97;33.92;;;;;;;1.36;93.90;100804.69;10463642;28;20049;-74
2021/11/11 03:49:12;;;;;;;47.53;31.42;;;;;;;1.54;92.97;100817.09;10447381;28;20041;-74
2021/11/11 03:54:15;;;;;;;42.67;29.00;;;;;;;1.78;90.30;100817.53;10464274;28;20045;-74
2021/11/11 03:59:17;;;;;;;44.25;29.30;;;;;;;1.44;90.45;100822.13;10464056;28;20079;-74
2021/11/11 04:04:19;;;;;;;39.33;28.50;;;;;;;1.16;91.21;100814.69;10462105;28;20052;-74
2021/11/11 04:09:21;;;;;;;51.72;29.38;;;;;;;1.16;91.42;100820.75;10463662;28;20056;-74
2021/11/11 04:14:23;;;;;;;44.35;29.25;;;;;;;1.28;90.76;100807.13;10463764;28;20040;-74
2021/11/11 04:19:25;;;;;;;35.25;25.60;;;;;;;1.01;89.75;100794.53;10462933;28;20029;-75
2021/11/11 04:24:27;;;;;;;42.03;27.67;;;;;;;0.87;90.75;100789.09;10463834;28;20060;-74
2021/11/11 04:29:32;;;;;;;50.50;29.77;;;;;;;0.67;91.91;100795.63;10461852;28;20075;-74
2021/11/11 04:34:38;;;;;;;52.83;31.00;;;;;;;0.56;92.43;100800.56;10462468;28;20045;-75
2021/11/11 05:00:59;;;;;;;49.72;28.73;;;;;;;0.80;91.75;100800.19;10461626;28;20419;-74
2021/11/11 05:06:02;;;;;;;42.10;26.80;;;;;;;0.84;91.36;100796.84;10459838;28;20516;-74
2021/11/11 05:11:05;;;;;;;35.03;25.48;;;;;;;1.01;90.01;100804.91;10460057;28;20072;-75
2021/11/11 05:16:07;;;;;;;44.95;28.33;;;;;;;0.88;90.94;100815.84;10461339;28;20045;-74
2021/11/11 05:21:10;;;;;;;45.05;28.10;;;;;;;0.89;90.88;100805.56;10458978;28;20040;-74
2021/11/11 05:26:12;;;;;;;41.15;28.55;;;;;;;0.65;92.08;100799.88;10442033;28;20136;-74
2021/11/11 05:31:16;;;;;;;43.80;29.80;;;;;;;0.67;92.64;100790.44;10461137;28;20048;-75
2021/11/11 05:36:18;;;;;;;48.17;31.25;;;;;;;0.62;93.06;100810.16;10458879;23;20080;-76
2021/11/11 05:41:20;;;;;;;42.15;28.85;;;;;;;0.45;93.08;100807.22;10399687;28;20101;-76
2021/11/11 05:46:26;;;;;;;46.78;30.60;;;;;;;0.43;94.05;100799.41;10375333;28;20100;-75
2021/11/11 05:51:28;;;;;;;56.35;33.42;;;;;;;0.69;93.25;100806.84;10374992;28;20372;-76
2021/11/11 05:56:30;;;;;;;63.50;35.28;;;;;;;0.52;93.58;100798.75;10377915;28;20124;-77
2021/11/11 06:01:32;;;;;;;64.88;36.15;;;;;;;0.49;94.37;100796.13;10392531;28;20612;-75
2021/11/11 06:06:35;;;;;;;66.45;36.08;;;;;;;0.47;94.65;100800.34;10359190;28;20484;-76
2021/11/11 06:11:37;;;;;;;69.22;37.65;;;;;;;0.81;95.16;100825.22;10390632;28;20384;-76
2021/11/11 06:16:38;;;;;;;59.20;35.90;;;;;;;0.73;94.31;100813.84;10375211;28;20488;-72
2021/11/11 06:21:41;;;;;;;77.60;41.38;;;;;;;0.62;94.76;100815.31;10374298;28;20042;-71
2021/11/11 06:26:46;;;;;;;84.75;43.10;;;;;;;0.62;95.87;100816.22;10374344;28;20073;-72
2021/11/11 06:31:47;;;;;;;86.68;43.97;;;;;;;0.66;96.20;100810.25;10373387;28;20411;-72
2021/11/11 06:36:59;;;;;;;109.68;50.47;;;;;;;0.78;97.25;100809.63;10372954;28;20046;-73
2021/11/11 06:42:01;;;;;;;114.78;54.28;;;;;;;0.85;98.52;100813.22;10381065;28;20041;-72
2021/11/11 06:47:03;;;;;;;115.90;51.92;;;;;;;1.06;98.95;100815.34;10381139;28;20053;-73
2021/11/11 06:52:05;;;;;;;95.90;48.40;;;;;;;1.12;99.33;100829.31;10395685;28;20122;-73
2021/11/11 06:57:07;;;;;;;101.35;49.72;;;;;;;1.18;99.56;100825.94;10379342;28;20112;-73
2021/11/11 07:02:12;;;;;;;105.88;51.70;;;;;;;1.25;99.92;100841.63;10379816;28;20045;-72
2021/11/11 07:07:14;;;;;;;99.97;50.22;;;;;;;1.42;100.00;100848.84;10364970;28;20050;-72
2021/11/11 07:12:16;;;;;;;95.30;49.70;;;;;;;1.55;100.00;100840.47;10381688;28;20041;-72
2021/11/11 07:17:17;;;;;;;98.88;49.55;;;;;;;1.92;99.98;100831.56;10379114;28;20077;-73
2021/11/11 07:22:19;;;;;;;99.40;47.63;;;;;;;2.41;98.08;100832.31;10379265;28;20046;-73
2021/11/11 07:27:21;;;;;;;75.65;43.65;;;;;;;2.25;96.45;100845.91;10378386;28;20414;-73
2021/11/11 07:32:22;;;;;;;83.68;45.13;;;;;;;2.48;96.55;100844.53;10378923;28;20136;-72
2021/11/11 07:37:24;;;;;;;86.43;46.17;;;;;;;2.64;95.27;100842.13;10380168;28;20054;-71
2021/11/11 07:42:26;;;;;;;81.15;46.00;;;;;;;2.63;94.52;100840.41;10361671;28;20345;-72
2021/11/11 07:47:34;;;;;;;79.80;42.38;;;;;;;2.57;94.88;100848.97;10395946;28;20112;-72
2021/11/11 07:52:37;;;;;;;74.10;40.38;;;;;;;2.65;94.21;100854.25;10376238;28;20046;-72
2021/11/11 07:57:40;;;;;;;69.57;40.63;;;;;;;2.92;92.49;100856.34;10376120;28;20052;-73
2021/11/11 08:02:42;;;;;;;67.03;40.35;;;;;;;3.13;92.47;100855.72;10374460;28;20050;-73
2021/11/11 08:07:47;;;;;;;64.65;37.78;;;;;;;3.48;90.05;100859.56;10377241;28;20045;-72
2021/11/11 08:12:49;;;;;;;66.00;37.55;;;;;;;3.62;89.52;100845.84;10378487;28;20046;-71
2021/11/11 08:17:51;;;;;;;65.88;39.05;;;;;;;3.78;89.45;100855.53;10377182;28;20050;-71
2021/11/11 08:22:52;;;;;;;65.93;37.20;;;;;;;4.10;88.02;100861.00;10377859;28;20057;-72
2021/11/11 08:27:54;;;;;;;61.65;36.33;;;;;;;3.96;88.19;100860.03;10378118;28;20050;-72
2021/11/11 08:32:56;;;;;;;53.95;35.75;;;;;;;4.55;85.70;100843.94;10377938;28;20041;-72
2021/11/11 08:37:59;;;;;;;50.42;35.67;;;;;;;4.66;85.12;100851.84;10375719;28;20529;-72
2021/11/11 08:43:01;;;;;;;53.40;36.22;;;;;;;4.54;85.87;100844.81;10376087;28;20050;-71
2021/11/11 08:48:06;;;;;;;59.78;36.05;;;;;;;4.65;85.92;100853.56;10361496;28;20124;-71
2021/11/11 08:53:09;;;;;;;51.65;34.35;;;;;;;4.96;84.07;100846.78;10377217;28;20077;-71
2021/11/11 08:58:12;;;;;;;54.28;34.17;;;;;;;5.07;84.15;100846.81;10376998;28;20081;-72
2021/11/11 09:03:15;;;;;;;47.22;32.03;;;;;;;5.50;81.83;100834.75;10376516;28;20096;-72
2021/11/11 09:08:17;;;;;;;40.45;30.60;;;;;;;5.51;82.21;100831.28;10392635;28;20496;-71
2021/11/11 09:13:19;;;;;;;38.78;29.35;;;;;;;5.77;80.92;100822.63;10376842;28;20431;-72
2021/11/11 09:18:21;;;;;;;38.20;28.27;;;;;;;5.84;80.82;100832.16;10375595;28;20080;-71
2021/11/11 09:23:35;;;;;;;39.45;29.92;;;;;;;5.77;81.67;100839.13;10375175;28;20042;-71
2021/11/11 09:28:39;;;;;;;33.55;27.70;;;;;;;5.82;81.03;100844.34;10373177;28;20053;-73
2021/11/11 09:33:43;;;;;;;33.55;27.55;;;;;;;6.01;80.10;100848.72;10371302;28;20041;-71
2021/11/11 09:38:45;;;;;;;31.23;26.02;;;;;;;6.16;79.17;100844.41;10370825;28;20045;-72
2021/11/11 09:43:47;;;;;;;29.50;26.33;;;;;;;6.25;78.74;100844.38;10371826;28;20487;-73
2021/11/11 09:48:49;;;;;;;28.88;25.85;;;;;;;6.13;80.01;100834.81;10373593;28;20466;-72
2021/11/11 09:59:08;;;;;;;25.58;23.05;;;;;;;6.66;76.17;100854.75;10358524;28;20062;-73
2021/11/11 10:04:12;;;;;;;26.25;23.52;;;;;;;6.71;75.48;100852.97;10349335;28;20496;-73
2021/11/11 10:09:16;;;;;;;26.85;23.95;;;;;;;6.68;76.26;100852.97;10355020;28;20124;-73
2021/11/11 10:14:27;;;;;;;27.33;24.50;;;;;;;6.61;77.06;100853.03;10379007;28;20041;-73
2021/11/11 10:19:32;;;;;;;25.88;23.60;;;;;;;6.60;76.68;100857.38;10382788;28;20049;-73
2021/11/11 10:24:45;;;;;;;25.15;22.70;;;;;;;6.97;74.74;100860.75;10382586;28;20113;-73
2021/11/11 10:29:52;;;;;;;26.00;23.35;;;;;;;7.12;74.32;100846.72;10383619;28;20054;-73
2021/11/11 10:35:00;;;;;;;25.17;22.98;;;;;;;7.23;73.06;100846.69;10378469;28;20046;-73
2021/11/11 10:40:05;;;;;;;23.38;21.33;;;;;;;7.98;70.69;100840.97;10343289;28;20042;-73
2021/11/11 10:45:14;;;;;;;23.23;20.98;;;;;;;8.11;70.16;100842.59;10341438;28;20694;-73
2021/11/11 10:50:26;;;;;;;20.58;18.92;;;;;;;8.50;69.04;100841.38;10340697;28;20050;-73
2021/11/11 10:55:35;;;;;;;21.10;19.13;;;;;;;8.95;66.38;100830.38;10340021;28;20042;-74
2021/11/11 11:00:52;;;;;;;21.80;19.92;;;;;;;9.45;64.79;100816.56;10340747;28;20049;-74
2021/11/11 11:05:59;;;;;;;20.25;18.42;;;;;;;10.16;64.17;100821.56;10340304;28;20064;-75
2021/11/11 11:11:10;;;;;;;19.88;18.25;;;;;;;10.65;60.38;100825.94;10354770;28;20053;-73
2021/11/11 11:16:14;;;;;;;21.48;19.65;;;;;;;10.27;60.70;100826.63;10379618;28;20046;-73
2021/11/11 11:21:22;;;;;;;17.95;16.60;;;;;;;10.67;61.37;100816.28;10379820;28;20038;-75
2021/11/11 11:26:24;;;;;;;19.52;17.95;;;;;;;10.61;61.36;100809.34;10378062;28;20542;-73
2021/11/11 11:31:45;;;;;;;20.00;18.50;;;;;;;10.23;60.50;100811.81;10365294;28;20514;-74
2021/11/11 11:36:52;;;;;;;19.80;18.30;;;;;;;9.92;61.43;100814.97;10372320;28;20085;-73
2021/11/11 11:41:56;;;;;;;20.85;19.25;;;;;;;9.66;61.77;100817.16;10450205;23;20059;-74
2021/11/11 11:47:09;;;;;;;20.15;18.60;;;;;;;9.82;62.46;100813.38;10475849;28;20045;-74
2021/11/11 11:52:13;;;;;;;21.42;19.80;;;;;;;9.68;62.39;100813.59;10474447;28;20099;-75
2021/11/11 12:02:35;;;;;;;20.97;19.37;;;;;;;10.55;59.05;100803.38;10472317;28;20048;-74
2021/11/11 12:08:01;;;;;;;19.38;17.77;;;;;;;9.85;61.70;100787.94;10472053;28;20059;-74
2021/11/11 12:40:23;;;;;;;22.83;20.83;;;;;;;8.74;67.17;100781.69;10469848;28;20041;-76
2021/11/11 12:45:36;;;;;;;23.52;21.45;;;;;;;8.38;68.31;100775.13;10468994;28;20052;-75
2021/11/11 12:50:44;;;;;;;21.98;20.00;;;;;;;8.29;69.30;100766.47;10449968;28;20037;-76
2021/11/11 12:55:53;;;;;;;21.75;20.02;;;;;;;8.68;67.51;100761.69;10466223;28;20151;-75
2021/11/11 13:01:02;;;;;;;23.33;21.27;;;;;;;8.34;69.26;100769.88;10465365;28;20041;-75
2021/11/11 13:06:06;;;;;;;23.45;21.30;;;;;;;8.17;70.03;100758.72;10469411;28;20049;-75
2021/11/11 13:11:12;;;;;;;26.35;20.77;;;;;;;8.19;69.82;100748.22;10465995;28;20112;-74
2021/11/11 13:16:19;;;;;;;22.77;20.70;;;;;;;8.30;69.06;100749.84;10467496;28;20079;-75
2021/11/11 15:14:01;;;;;;;28.55;25.73;;;;;;;6.59;74.84;100772.03;10467337;28;20040;-75
2021/11/11 16:03:35;;;;;;;43.83;30.25;;;;;;;4.79;82.36;100809.38;10453864;28;20041;-76
2021/11/11 16:25:10;;;;;;;51.55;32.25;;;;;;;4.71;83.64;100819.75;10464522;28;20048;-75
2021/11/11 16:30:14;;;;;;;;;;;;;;;4.33;83.74;100824.72;10465744;28;20045;-76
2021/11/11 16:35:17;;;;;;;59.78;33.03;;;;;;;4.34;85.11;100823.00;10465115;28;19931;-76
2021/11/11 16:40:24;;;;;;;55.65;33.72;;;;;;;4.27;85.49;100822.09;10465041;28;20533;-76
2021/11/11 16:45:26;;;;;;;40.63;25.27;;;;;;;4.20;85.17;100817.69;10463208;28;20051;-75
2021/11/11 16:50:27;;;;;;;57.70;34.75;;;;;;;4.18;86.15;100829.84;10462751;28;20053;-76
2021/11/11 16:55:29;;;;;;;59.13;36.83;;;;;;;4.25;84.77;100839.41;10464903;28;20127;-74
2021/11/11 17:00:32;;;;;;;59.10;34.50;;;;;;;4.24;85.61;100838.53;10464258;28;20053;-75
2021/11/11 17:05:34;;;;;;;59.40;34.30;;;;;;;3.96;86.77;100847.03;10464792;28;20049;-74
2021/11/11 17:10:37;;;;;;;61.38;34.40;;;;;;;4.23;85.95;100852.44;10464383;28;20049;-76
2021/11/11 17:15:40;;;;;;;54.20;32.13;;;;;;;3.92;86.17;100853.06;10461316;28;20045;-74
2021/11/11 17:20:43;;;;;;;56.63;34.92;;;;;;;4.12;86.21;100853.19;10461348;28;20387;-75
2021/11/11 17:31:06;;;;;;;63.53;36.38;;;;;;;3.93;87.50;100879.06;10461652;28;20066;-75
2021/11/11 17:36:11;;;;;;;54.88;35.28;;;;;;;3.80;87.10;100872.00;10462071;28;20506;-75
2021/11/11 17:41:13;;;;;;;63.83;36.05;;;;;;;3.63;88.04;100878.78;10472522;23;20059;-75
2021/11/11 17:56:27;;;;;;;63.88;34.72;;;;;;;3.64;88.16;100884.00;10456602;28;20044;-76
2021/11/11 18:01:30;;;;;;;53.72;32.13;;;;;;;3.29;88.71;100881.91;10456098;28;20044;-75
2021/11/11 18:06:35;;;;;;;52.45;32.03;;;;;;;3.31;88.58;100887.09;10457460;28;20045;-75
2021/11/11 18:11:46;;;;;;;49.88;30.98;;;;;;;3.02;89.17;100877.25;10457741;28;20048;-75
2021/11/11 18:16:51;;;;;;;;;;;;;;;2.91;89.91;100878.84;10457833;28;20045;-76
2021/11/11 18:21:54;;;;;;;60.00;34.10;;;;;;;2.89;90.00;100884.88;10457239;28;19921;-76
2021/11/11 18:26:56;;;;;;;56.35;32.65;;;;;;;2.89;89.88;100883.16;10455234;28;20053;-76
2021/11/11 18:32:05;;;;;;;51.45;31.15;;;;;;;2.78;90.59;100884.72;10438380;28;20071;-76
2021/11/11 18:37:09;;;;;;;60.05;32.88;;;;;;;2.68;90.78;100888.06;10462120;28;20111;-76
2021/11/11 18:42:12;;;;;;;60.33;33.30;;;;;;;2.64;91.01;100892.31;10433116;28;20132;-76
2021/11/11 18:52:28;;;;;;;53.53;32.85;;;;;;;2.66;91.29;100903.63;10423039;28;20116;-76
2021/11/11 18:57:30;;;;;;;60.65;34.03;;;;;;;3.01;89.72;100898.91;10421768;28;20506;-76
2021/11/11 19:02:31;;;;;;;54.83;34.47;;;;;;;2.77;89.79;100895.97;10423263;28;20491;-76
2021/11/11 19:07:37;;;;;;;61.78;33.78;;;;;;;2.65;90.60;100900.97;10429940;28;20053;-75
2021/11/11 19:12:47;;;;;;;58.28;33.13;;;;;;;2.74;90.50;100895.91;10423093;28;20068;-75
2021/11/11 19:17:51;;;;;;;61.00;33.70;;;;;;;2.95;90.13;100906.59;10420656;28;20053;-76
2021/11/11 19:22:58;;;;;;;56.15;33.03;;;;;;;2.62;90.52;100912.22;10421724;28;20096;-76
2021/11/11 19:27:59;;;;;;;51.47;32.85;;;;;;;2.43;91.47;100916.22;10422450;28;20115;-76
2021/11/11 19:33:01;;;;;;;55.10;33.17;;;;;;;2.47;91.15;100919.75;10420949;28;20100;-76
2021/11/11 19:38:11;;;;;;;56.72;32.97;;;;;;;2.31;91.43;100912.59;10422385;28;20045;-76
2021/11/11 19:43:31;;;;;;;47.38;30.50;;;;;;;2.15;91.00;100922.72;10420579;28;20487;-76
2021/11/11 19:54:05;;;;;;;44.35;29.30;;;;;;;2.28;90.04;100913.41;10421525;28;20075;-76
2021/11/11 19:59:25;;;;;;;45.28;29.40;;;;;;;2.17;89.32;100920.13;10421585;28;20092;-76
2021/11/11 20:09:57;;;;;;;49.63;30.95;;;;;;;1.82;90.27;100923.00;10422514;28;20041;-76
2021/11/11 20:15:20;;;;;;;49.40;30.85;;;;;;;1.64;90.29;100922.66;10420117;28;20041;-76
2021/11/11 20:20:46;;;;;;;45.80;30.83;;;;;;;1.52;90.48;100919.00;10418658;28;20080;-76
2021/11/11 20:31:32;;;;;;;54.00;31.83;;;;;;;1.42;90.94;100918.81;10419370;28;20052;-76
2021/11/11 20:37:11;;;;;;;47.67;29.83;;;;;;;1.65;91.06;100927.00;10418855;28;20084;-75
2021/11/11 20:58:09;;;;;;;58.85;33.75;;;;;;;1.30;89.92;100929.78;10418589;28;20410;-75
2021/11/11 21:03:18;;;;;;;68.97;38.22;;;;;;;1.32;89.83;100925.50;10417922;28;20490;-77
2021/11/11 21:08:30;;;;;;;67.13;38.10;;;;;;;1.14;89.71;100913.06;10418121;28;20474;-76
2021/11/11 21:14:03;;;;;;;65.03;36.95;;;;;;;1.09;90.34;100922.44;10402636;28;20060;-76
2021/11/11 21:19:15;;;;;;;72.93;38.60;;;;;;;0.89;90.83;100919.44;10415907;28;20087;-76
2021/11/11 21:24:18;;;;;;;70.65;38.65;;;;;;;0.74;91.18;100914.78;10415988;28;20047;-75
2021/11/11 21:29:21;;;;;;;59.17;34.65;;;;;;;0.73;91.23;100913.06;10416473;28;20103;-77
2021/11/11 21:34:36;;;;;;;60.45;34.10;;;;;;;0.82;91.00;100899.44;10417611;28;20042;-75
2021/11/11 21:39:50;;;;;;;55.90;35.28;;;;;;;0.77;90.65;100906.22;10416370;28;20053;-76
2021/11/11 21:44:52;;;;;;;67.40;35.83;;;;;;;0.80;90.93;100902.81;10399120;28;20056;-75
2021/11/11 21:49:55;;;;;;;65.63;36.45;;;;;;;0.75;91.12;100892.38;10417081;28;20497;-77
2021/11/11 21:55:07;;;;;;;56.97;34.40;;;;;;;0.94;90.15;100891.94;10416256;28;20046;-76
2021/11/11 22:00:33;;;;;;;66.22;37.58;;;;;;;0.86;90.13;100890.03;10414453;28;20107;-75
2021/11/11 22:06:15;;;;;;;61.67;35.30;;;;;;;0.77;90.64;100884.66;10416841;28;20068;-75
2021/11/11 22:19:50;;;;;;;63.00;35.25;;;;;;;0.71;91.29;100881.09;10421790;28;20066;-75
2021/11/11 22:32:31;;;;;;;53.25;34.33;;;;;;;0.24;92.02;100878.31;10424000;28;20041;-75
2021/11/11 22:37:36;;;;;;;46.60;31.27;;;;;;;0.29;91.96;100878.41;10421649;28;20049;-75
2021/11/11 22:42:39;;;;;;;52.70;33.60;;;;;;;0.39;91.38;100889.84;10423174;28;20491;-76
2021/11/11 22:47:41;;;;;;;52.70;31.52;;;;;;;0.34;91.20;100886.28;10420700;28;20056;-77
2021/11/11 22:52:44;;;;;;;49.55;31.95;;;;;;;0.34;91.27;100883.69;10422051;28;20045;-74
2021/11/11 23:02:56;;;;;;;54.97;33.30;;;;;;;0.25;91.46;100882.63;10421903;28;20138;-76
2021/11/11 23:19:03;;;;;;;53.47;35.40;;;;;;;0.11;91.21;100868.50;10420214;28;20053;-75
2021/11/11 23:24:24;;;;;;;56.45;32.78;;;;;;;0.11;91.08;100860.75;10421605;28;20049;-76
2021/11/11 23:35:06;;;;;;;50.08;31.65;;;;;;;0.11;91.32;100854.72;10375714;28;20396;-76
2021/11/11 23:40:09;;;;;;;53.13;32.38;;;;;;;-0.02;91.24;100840.63;10376444;28;20407;-78
2021/11/11 23:45:10;;;;;;;56.08;33.70;;;;;;;-0.15;91.95;100841.16;10359750;28;20045;-77
